sensor_id;sensor_type;location;lat;lon;timestamp;P1;durP1;ratioP1;P2;durP2;ratioP2
53718;SDS011;39616;48.872;9.390;2024-03-02T00:02:25;11.73;;;6.93;;
53718;SDS011;39616;48.872;9.390;2024-03-02T00:04:55;15.05;;;7.15;;
53718;SDS011;39616;48.872;9.390;2024-03-02T00:07:26;15.25;;;7.75;;
53718;SDS011;39616;48.872;9.390;2024-03-02T00:09:56;14.38;;;7.72;;
53718;SDS011;39616;48.872;9.390;2024-03-02T00:12:26;15.52;;;8.25;;
53718;SDS011;39616;48.872;9.390;2024-03-02T00:14:57;67.75;;;32.83;;
53718;SDS011;39616;48.872;9.390;2024-03-02T00:17:27;27.77;;;13.77;;
53718;SDS011;39616;48.872;9.390;2024-03-02T00:19:59;20.10;;;11.50;;
53718;SDS011;39616;48.872;9.390;2024-03-02T00:22:30;22.55;;;12.20;;
53718;SDS011;39616;48.872;9.390;2024-03-02T00:25:00;20.95;;;11.10;;
53718;SDS011;39616;48.872;9.390;2024-03-02T00:27:30;19.13;;;10.05;;
53718;SDS011;39616;48.872;9.390;2024-03-02T00:30:01;20.85;;;10.60;;
53718;SDS011;39616;48.872;9.390;2024-03-02T00:32:36;24.20;;;11.07;;
53718;SDS011;39616;48.872;9.390;2024-03-02T00:35:06;21.35;;;10.98;;
53718;SDS011;39616;48.872;9.390;2024-03-02T00:37:36;20.60;;;11.10;;
53718;SDS011;39616;48.872;9.390;2024-03-02T00:40:07;22.23;;;11.18;;
53718;SDS011;39616;48.872;9.390;2024-03-02T00:42:38;18.05;;;10.52;;
53718;SDS011;39616;48.872;9.390;2024-03-02T00:45:08;21.92;;;11.25;;
53718;SDS011;39616;48.872;9.390;2024-03-02T00:47:38;21.17;;;10.30;;
53718;SDS011;39616;48.872;9.390;2024-03-02T00:50:09;21.30;;;10.75;;
53718;SDS011;39616;48.872;9.390;2024-03-02T00:52:40;22.77;;;12.27;;
53718;SDS011;39616;48.872;9.390;2024-03-02T00:55:11;21.27;;;10.32;;
53718;SDS011;39616;48.872;9.390;2024-03-02T00:57:42;19.70;;;10.50;;
53718;SDS011;39616;48.872;9.390;2024-03-02T01:00:14;19.65;;;10.55;;
53718;SDS011;39616;48.872;9.390;2024-03-02T01:02:45;22.48;;;10.95;;
53718;SDS011;39616;48.872;9.390;2024-03-02T01:05:16;21.48;;;10.38;;
53718;SDS011;39616;48.872;9.390;2024-03-02T01:07:46;20.77;;;10.60;;
53718;SDS011;39616;48.872;9.390;2024-03-02T01:10:16;22.15;;;11.55;;
53718;SDS011;39616;48.872;9.390;2024-03-02T01:12:47;20.83;;;10.68;;
53718;SDS011;39616;48.872;9.390;2024-03-02T01:15:17;17.90;;;9.75;;
53718;SDS011;39616;48.872;9.390;2024-03-02T01:17:48;24.98;;;12.93;;
53718;SDS011;39616;48.872;9.390;2024-03-02T01:20:18;24.92;;;13.25;;
53718;SDS011;39616;48.872;9.390;2024-03-02T01:22:48;24.35;;;12.00;;
53718;SDS011;39616;48.872;9.390;2024-03-02T01:25:19;22.45;;;10.68;;
53718;SDS011;39616;48.872;9.390;2024-03-02T01:27:49;25.17;;;12.85;;
53718;SDS011;39616;48.872;9.390;2024-03-02T01:30:19;25.55;;;13.43;;
53718;SDS011;39616;48.872;9.390;2024-03-02T01:32:50;23.50;;;12.23;;
53718;SDS011;39616;48.872;9.390;2024-03-02T01:35:22;26.75;;;13.15;;
53718;SDS011;39616;48.872;9.390;2024-03-02T01:37:53;24.58;;;12.32;;
53718;SDS011;39616;48.872;9.390;2024-03-02T01:40:23;25.45;;;12.82;;
53718;SDS011;39616;48.872;9.390;2024-03-02T01:42:58;23.25;;;11.77;;
53718;SDS011;39616;48.872;9.390;2024-03-02T01:45:28;22.70;;;12.25;;
53718;SDS011;39616;48.872;9.390;2024-03-02T01:47:59;22.33;;;11.10;;
53718;SDS011;39616;48.872;9.390;2024-03-02T01:50:31;22.73;;;12.43;;
53718;SDS011;39616;48.872;9.390;2024-03-02T01:53:02;24.10;;;10.98;;
53718;SDS011;39616;48.872;9.390;2024-03-02T01:55:35;20.00;;;10.00;;
53718;SDS011;39616;48.872;9.390;2024-03-02T01:58:05;24.05;;;10.80;;
53718;SDS011;39616;48.872;9.390;2024-03-02T02:00:36;23.20;;;11.13;;
53718;SDS011;39616;48.872;9.390;2024-03-02T02:03:07;18.92;;;9.80;;
53718;SDS011;39616;48.872;9.390;2024-03-02T02:05:37;21.50;;;11.52;;
53718;SDS011;39616;48.872;9.390;2024-03-02T02:08:07;19.10;;;10.00;;
53718;SDS011;39616;48.872;9.390;2024-03-02T02:10:38;19.23;;;9.35;;
53718;SDS011;39616;48.872;9.390;2024-03-02T02:13:08;16.67;;;8.45;;
53718;SDS011;39616;48.872;9.390;2024-03-02T02:15:38;18.92;;;10.18;;
53718;SDS011;39616;48.872;9.390;2024-03-02T02:18:09;27.17;;;13.80;;
53718;SDS011;39616;48.872;9.390;2024-03-02T02:20:39;35.13;;;18.75;;
53718;SDS011;39616;48.872;9.390;2024-03-02T02:23:09;17.08;;;9.48;;
53718;SDS011;39616;48.872;9.390;2024-03-02T02:25:40;16.40;;;9.05;;
53718;SDS011;39616;48.872;9.390;2024-03-02T02:28:10;17.73;;;9.93;;
53718;SDS011;39616;48.872;9.390;2024-03-02T02:30:40;17.35;;;7.95;;
53718;SDS011;39616;48.872;9.390;2024-03-02T02:33:11;18.98;;;8.40;;
53718;SDS011;39616;48.872;9.390;2024-03-02T02:35:41;18.58;;;8.50;;
53718;SDS011;39616;48.872;9.390;2024-03-02T02:38:11;20.92;;;9.80;;
53718;SDS011;39616;48.872;9.390;2024-03-02T02:40:42;17.40;;;8.15;;
53718;SDS011;39616;48.872;9.390;2024-03-02T02:43:12;14.80;;;8.05;;
53718;SDS011;39616;48.872;9.390;2024-03-02T02:45:42;15.65;;;8.45;;
53718;SDS011;39616;48.872;9.390;2024-03-02T02:48:13;18.38;;;10.20;;
53718;SDS011;39616;48.872;9.390;2024-03-02T02:50:43;22.05;;;8.02;;
53718;SDS011;39616;48.872;9.390;2024-03-02T02:53:13;20.30;;;8.25;;
53718;SDS011;39616;48.872;9.390;2024-03-02T02:55:44;18.30;;;8.32;;
53718;SDS011;39616;48.872;9.390;2024-03-02T02:58:14;17.40;;;8.68;;
53718;SDS011;39616;48.872;9.390;2024-03-02T03:00:46;18.17;;;9.13;;
53718;SDS011;39616;48.872;9.390;2024-03-02T03:03:17;18.55;;;8.65;;
53718;SDS011;39616;48.872;9.390;2024-03-02T03:05:48;16.02;;;8.65;;
53718;SDS011;39616;48.872;9.390;2024-03-02T03:08:18;18.02;;;8.85;;
53718;SDS011;39616;48.872;9.390;2024-03-02T03:10:49;17.38;;;9.00;;
53718;SDS011;39616;48.872;9.390;2024-03-02T03:13:19;26.70;;;13.90;;
53718;SDS011;39616;48.872;9.390;2024-03-02T03:15:49;26.23;;;12.02;;
53718;SDS011;39616;48.872;9.390;2024-03-02T03:18:20;21.25;;;10.88;;
53718;SDS011;39616;48.872;9.390;2024-03-02T03:20:50;26.77;;;12.40;;
53718;SDS011;39616;48.872;9.390;2024-03-02T03:23:20;29.90;;;12.68;;
53718;SDS011;39616;48.872;9.390;2024-03-02T03:25:51;27.00;;;13.77;;
53718;SDS011;39616;48.872;9.390;2024-03-02T03:28:21;25.20;;;12.48;;
53718;SDS011;39616;48.872;9.390;2024-03-02T03:30:51;28.08;;;12.38;;
53718;SDS011;39616;48.872;9.390;2024-03-02T03:33:21;20.00;;;9.27;;
53718;SDS011;39616;48.872;9.390;2024-03-02T03:35:52;23.00;;;9.98;;
53718;SDS011;39616;48.872;9.390;2024-03-02T03:38:23;18.85;;;10.25;;
53718;SDS011;39616;48.872;9.390;2024-03-02T03:40:53;25.63;;;11.57;;
53718;SDS011;39616;48.872;9.390;2024-03-02T03:43:24;27.90;;;14.40;;
53718;SDS011;39616;48.872;9.390;2024-03-02T03:45:54;24.60;;;12.07;;
53718;SDS011;39616;48.872;9.390;2024-03-02T03:48:24;24.63;;;11.95;;
53718;SDS011;39616;48.872;9.390;2024-03-02T03:51:00;21.48;;;10.02;;
53718;SDS011;39616;48.872;9.390;2024-03-02T03:53:30;22.08;;;9.00;;
53718;SDS011;39616;48.872;9.390;2024-03-02T03:56:01;17.52;;;8.30;;
53718;SDS011;39616;48.872;9.390;2024-03-02T03:58:31;18.52;;;8.95;;
53718;SDS011;39616;48.872;9.390;2024-03-02T04:01:02;20.33;;;9.60;;
53718;SDS011;39616;48.872;9.390;2024-03-02T04:03:32;18.00;;;8.77;;
53718;SDS011;39616;48.872;9.390;2024-03-02T04:06:02;18.33;;;8.93;;
53718;SDS011;39616;48.872;9.390;2024-03-02T04:08:33;19.15;;;9.25;;
53718;SDS011;39616;48.872;9.390;2024-03-02T04:11:03;21.20;;;9.48;;
53718;SDS011;39616;48.872;9.390;2024-03-02T04:13:34;23.65;;;10.73;;
53718;SDS011;39616;48.872;9.390;2024-03-02T04:16:05;23.25;;;11.45;;
53718;SDS011;39616;48.872;9.390;2024-03-02T04:18:35;27.38;;;12.23;;
53718;SDS011;39616;48.872;9.390;2024-03-02T04:21:05;22.88;;;11.88;;
53718;SDS011;39616;48.872;9.390;2024-03-02T04:23:36;29.02;;;12.30;;
53718;SDS011;39616;48.872;9.390;2024-03-02T04:26:08;28.00;;;12.15;;
53718;SDS011;39616;48.872;9.390;2024-03-02T04:28:39;24.98;;;11.30;;
53718;SDS011;39616;48.872;9.390;2024-03-02T04:31:09;24.77;;;12.40;;
53718;SDS011;39616;48.872;9.390;2024-03-02T04:33:39;26.15;;;12.63;;
53718;SDS011;39616;48.872;9.390;2024-03-02T04:36:09;27.52;;;11.40;;
53718;SDS011;39616;48.872;9.390;2024-03-02T04:38:40;25.48;;;11.88;;
53718;SDS011;39616;48.872;9.390;2024-03-02T04:41:10;24.75;;;11.40;;
53718;SDS011;39616;48.872;9.390;2024-03-02T04:43:40;32.05;;;13.10;;
53718;SDS011;39616;48.872;9.390;2024-03-02T04:46:11;32.65;;;14.93;;
53718;SDS011;39616;48.872;9.390;2024-03-02T04:48:41;31.65;;;14.10;;
53718;SDS011;39616;48.872;9.390;2024-03-02T04:51:11;29.55;;;13.85;;
53718;SDS011;39616;48.872;9.390;2024-03-02T04:53:43;32.10;;;13.55;;
53718;SDS011;39616;48.872;9.390;2024-03-02T04:56:13;21.10;;;10.23;;
53718;SDS011;39616;48.872;9.390;2024-03-02T04:59:08;23.23;;;9.32;;
53718;SDS011;39616;48.872;9.390;2024-03-02T05:01:39;19.08;;;9.52;;
53718;SDS011;39616;48.872;9.390;2024-03-02T05:04:09;21.25;;;9.73;;
53718;SDS011;39616;48.872;9.390;2024-03-02T05:06:41;21.27;;;9.75;;
53718;SDS011;39616;48.872;9.390;2024-03-02T05:09:11;21.50;;;10.15;;
53718;SDS011;39616;48.872;9.390;2024-03-02T05:11:42;21.67;;;10.20;;
53718;SDS011;39616;48.872;9.390;2024-03-02T05:14:29;33.88;;;15.85;;
53718;SDS011;39616;48.872;9.390;2024-03-02T05:16:59;27.00;;;12.48;;
53718;SDS011;39616;48.872;9.390;2024-03-02T05:19:29;29.15;;;12.57;;
53718;SDS011;39616;48.872;9.390;2024-03-02T05:22:00;25.00;;;12.07;;
53718;SDS011;39616;48.872;9.390;2024-03-02T05:24:30;29.30;;;12.23;;
53718;SDS011;39616;48.872;9.390;2024-03-02T05:27:00;28.08;;;11.52;;
53718;SDS011;39616;48.872;9.390;2024-03-02T05:29:31;24.27;;;10.73;;
53718;SDS011;39616;48.872;9.390;2024-03-02T05:32:01;26.67;;;10.75;;
53718;SDS011;39616;48.872;9.390;2024-03-02T05:34:31;31.25;;;12.27;;
53718;SDS011;39616;48.872;9.390;2024-03-02T05:37:04;29.92;;;13.40;;
53718;SDS011;39616;48.872;9.390;2024-03-02T05:39:35;34.20;;;14.68;;
53718;SDS011;39616;48.872;9.390;2024-03-02T05:42:05;41.17;;;15.13;;
53718;SDS011;39616;48.872;9.390;2024-03-02T05:44:36;38.15;;;15.55;;
53718;SDS011;39616;48.872;9.390;2024-03-02T05:47:06;42.28;;;16.52;;
53718;SDS011;39616;48.872;9.390;2024-03-02T05:49:38;37.17;;;16.05;;
53718;SDS011;39616;48.872;9.390;2024-03-02T05:52:09;45.85;;;18.00;;
53718;SDS011;39616;48.872;9.390;2024-03-02T05:54:39;33.38;;;13.68;;
53718;SDS011;39616;48.872;9.390;2024-03-02T05:57:09;31.42;;;14.02;;
53718;SDS011;39616;48.872;9.390;2024-03-02T05:59:58;39.20;;;15.35;;
53718;SDS011;39616;48.872;9.390;2024-03-02T06:02:29;36.05;;;15.68;;
53718;SDS011;39616;48.872;9.390;2024-03-02T06:04:59;37.25;;;15.13;;
53718;SDS011;39616;48.872;9.390;2024-03-02T06:07:29;34.22;;;16.42;;
53718;SDS011;39616;48.872;9.390;2024-03-02T06:09:59;36.20;;;15.57;;
53718;SDS011;39616;48.872;9.390;2024-03-02T06:12:30;39.47;;;16.05;;
53718;SDS011;39616;48.872;9.390;2024-03-02T06:15:02;43.30;;;16.95;;
53718;SDS011;39616;48.872;9.390;2024-03-02T06:17:35;48.95;;;17.55;;
53718;SDS011;39616;48.872;9.390;2024-03-02T06:20:05;38.10;;;15.68;;
53718;SDS011;39616;48.872;9.390;2024-03-02T06:22:38;33.75;;;13.90;;
53718;SDS011;39616;48.872;9.390;2024-03-02T06:25:08;40.58;;;16.60;;
53718;SDS011;39616;48.872;9.390;2024-03-02T06:27:39;37.65;;;15.60;;
53718;SDS011;39616;48.872;9.390;2024-03-02T06:30:09;38.40;;;16.02;;
53718;SDS011;39616;48.872;9.390;2024-03-02T06:32:40;40.92;;;16.60;;
53718;SDS011;39616;48.872;9.390;2024-03-02T06:35:10;43.08;;;16.85;;
53718;SDS011;39616;48.872;9.390;2024-03-02T06:37:42;49.75;;;22.65;;
53718;SDS011;39616;48.872;9.390;2024-03-02T06:40:12;40.15;;;17.67;;
53718;SDS011;39616;48.872;9.390;2024-03-02T06:42:43;40.30;;;18.08;;
53718;SDS011;39616;48.872;9.390;2024-03-02T06:45:13;34.38;;;15.65;;
53718;SDS011;39616;48.872;9.390;2024-03-02T06:47:43;31.65;;;13.15;;
53718;SDS011;39616;48.872;9.390;2024-03-02T06:50:14;25.35;;;11.73;;
53718;SDS011;39616;48.872;9.390;2024-03-02T06:52:44;25.20;;;11.50;;
53718;SDS011;39616;48.872;9.390;2024-03-02T06:55:14;27.77;;;12.93;;
53718;SDS011;39616;48.872;9.390;2024-03-02T06:57:44;30.95;;;15.15;;
53718;SDS011;39616;48.872;9.390;2024-03-02T07:00:15;30.80;;;12.15;;
53718;SDS011;39616;48.872;9.390;2024-03-02T07:02:47;27.40;;;13.63;;
53718;SDS011;39616;48.872;9.390;2024-03-02T07:05:18;27.85;;;12.88;;
53718;SDS011;39616;48.872;9.390;2024-03-02T07:07:48;32.05;;;14.80;;
53718;SDS011;39616;48.872;9.390;2024-03-02T07:10:18;26.48;;;13.57;;
53718;SDS011;39616;48.872;9.390;2024-03-02T07:12:49;27.17;;;12.40;;
53718;SDS011;39616;48.872;9.390;2024-03-02T07:15:19;25.98;;;11.32;;
53718;SDS011;39616;48.872;9.390;2024-03-02T07:17:58;24.08;;;12.27;;
53718;SDS011;39616;48.872;9.390;2024-03-02T07:20:28;21.92;;;11.00;;
53718;SDS011;39616;48.872;9.390;2024-03-02T07:22:59;24.35;;;10.65;;
53718;SDS011;39616;48.872;9.390;2024-03-02T07:25:29;22.17;;;11.15;;
53718;SDS011;39616;48.872;9.390;2024-03-02T07:27:59;21.92;;;9.40;;
53718;SDS011;39616;48.872;9.390;2024-03-02T07:30:30;18.58;;;9.40;;
53718;SDS011;39616;48.872;9.390;2024-03-02T07:33:00;20.38;;;9.48;;
53718;SDS011;39616;48.872;9.390;2024-03-02T07:35:30;27.20;;;11.23;;
53718;SDS011;39616;48.872;9.390;2024-03-02T07:38:01;26.50;;;11.85;;
53718;SDS011;39616;48.872;9.390;2024-03-02T07:40:32;22.90;;;10.18;;
53718;SDS011;39616;48.872;9.390;2024-03-02T07:43:02;21.30;;;9.27;;
53718;SDS011;39616;48.872;9.390;2024-03-02T07:45:32;21.15;;;9.13;;
53718;SDS011;39616;48.872;9.390;2024-03-02T07:48:03;17.80;;;9.15;;
53718;SDS011;39616;48.872;9.390;2024-03-02T07:50:36;16.50;;;8.57;;
53718;SDS011;39616;48.872;9.390;2024-03-02T07:53:07;20.25;;;8.70;;
53718;SDS011;39616;48.872;9.390;2024-03-02T07:55:38;14.85;;;8.35;;
53718;SDS011;39616;48.872;9.390;2024-03-02T07:58:11;19.50;;;8.70;;
53718;SDS011;39616;48.872;9.390;2024-03-02T08:00:41;15.88;;;7.28;;
53718;SDS011;39616;48.872;9.390;2024-03-02T08:03:12;13.00;;;7.50;;
53718;SDS011;39616;48.872;9.390;2024-03-02T08:05:42;17.60;;;8.57;;
53718;SDS011;39616;48.872;9.390;2024-03-02T08:08:14;14.95;;;6.93;;
53718;SDS011;39616;48.872;9.390;2024-03-02T08:10:44;12.95;;;6.70;;
53718;SDS011;39616;48.872;9.390;2024-03-02T08:13:14;14.60;;;6.65;;
53718;SDS011;39616;48.872;9.390;2024-03-02T08:15:45;13.13;;;7.00;;
53718;SDS011;39616;48.872;9.390;2024-03-02T08:18:15;13.63;;;7.15;;
53718;SDS011;39616;48.872;9.390;2024-03-02T08:20:45;13.20;;;6.55;;
53718;SDS011;39616;48.872;9.390;2024-03-02T08:23:17;13.05;;;6.80;;
53718;SDS011;39616;48.872;9.390;2024-03-02T08:25:47;13.10;;;6.60;;
53718;SDS011;39616;48.872;9.390;2024-03-02T08:28:17;11.20;;;6.43;;
53718;SDS011;39616;48.872;9.390;2024-03-02T08:30:48;14.07;;;6.63;;
53718;SDS011;39616;48.872;9.390;2024-03-02T08:33:18;12.30;;;6.32;;
53718;SDS011;39616;48.872;9.390;2024-03-02T08:35:48;11.25;;;6.38;;
53718;SDS011;39616;48.872;9.390;2024-03-02T08:38:19;12.80;;;5.82;;
53718;SDS011;39616;48.872;9.390;2024-03-02T08:40:49;8.00;;;5.05;;
53718;SDS011;39616;48.872;9.390;2024-03-02T08:43:20;13.27;;;6.28;;
53718;SDS011;39616;48.872;9.390;2024-03-02T08:45:50;8.65;;;5.32;;
53718;SDS011;39616;48.872;9.390;2024-03-02T08:48:21;10.02;;;6.30;;
53718;SDS011;39616;48.872;9.390;2024-03-02T08:50:51;9.43;;;5.40;;
53718;SDS011;39616;48.872;9.390;2024-03-02T08:53:21;11.98;;;5.55;;
53718;SDS011;39616;48.872;9.390;2024-03-02T08:55:51;10.57;;;5.93;;
53718;SDS011;39616;48.872;9.390;2024-03-02T08:58:22;9.02;;;5.22;;
53718;SDS011;39616;48.872;9.390;2024-03-02T09:00:52;8.60;;;5.10;;
53718;SDS011;39616;48.872;9.390;2024-03-02T09:03:23;9.68;;;5.63;;
53718;SDS011;39616;48.872;9.390;2024-03-02T09:05:53;10.48;;;5.35;;
53718;SDS011;39616;48.872;9.390;2024-03-02T09:08:23;7.72;;;4.68;;
53718;SDS011;39616;48.872;9.390;2024-03-02T09:10:54;7.72;;;5.10;;
53718;SDS011;39616;48.872;9.390;2024-03-02T09:13:24;10.85;;;5.60;;
53718;SDS011;39616;48.872;9.390;2024-03-02T09:15:55;9.32;;;5.30;;
53718;SDS011;39616;48.872;9.390;2024-03-02T09:18:25;8.43;;;5.07;;
53718;SDS011;39616;48.872;9.390;2024-03-02T09:20:55;6.88;;;4.00;;
53718;SDS011;39616;48.872;9.390;2024-03-02T09:23:26;8.90;;;4.70;;
53718;SDS011;39616;48.872;9.390;2024-03-02T09:25:56;7.22;;;4.13;;
53718;SDS011;39616;48.872;9.390;2024-03-02T09:28:26;9.60;;;4.38;;
53718;SDS011;39616;48.872;9.390;2024-03-02T09:30:57;6.75;;;4.47;;
53718;SDS011;39616;48.872;9.390;2024-03-02T09:33:27;6.93;;;4.10;;
53718;SDS011;39616;48.872;9.390;2024-03-02T09:35:57;5.43;;;3.53;;
53718;SDS011;39616;48.872;9.390;2024-03-02T09:38:27;5.18;;;3.05;;
53718;SDS011;39616;48.872;9.390;2024-03-02T09:40:58;4.65;;;2.63;;
53718;SDS011;39616;48.872;9.390;2024-03-02T09:43:30;8.18;;;3.47;;
53718;SDS011;39616;48.872;9.390;2024-03-02T09:46:00;3.75;;;2.60;;
53718;SDS011;39616;48.872;9.390;2024-03-02T09:48:31;6.47;;;3.42;;
53718;SDS011;39616;48.872;9.390;2024-03-02T09:51:01;3.15;;;2.33;;
53718;SDS011;39616;48.872;9.390;2024-03-02T09:53:33;6.70;;;2.50;;
53718;SDS011;39616;48.872;9.390;2024-03-02T09:56:04;3.72;;;2.25;;
53718;SDS011;39616;48.872;9.390;2024-03-02T09:58:34;1.90;;;1.58;;
53718;SDS011;39616;48.872;9.390;2024-03-02T10:01:05;1.90;;;1.30;;
53718;SDS011;39616;48.872;9.390;2024-03-02T10:03:36;2.53;;;1.10;;
53718;SDS011;39616;48.872;9.390;2024-03-02T10:06:20;1.60;;;1.25;;
53718;SDS011;39616;48.872;9.390;2024-03-02T10:08:50;1.73;;;1.40;;
53718;SDS011;39616;48.872;9.390;2024-03-02T10:14:11;1.50;;;1.40;;
53718;SDS011;39616;48.872;9.390;2024-03-02T10:16:43;3.72;;;1.50;;
53718;SDS011;39616;48.872;9.390;2024-03-02T10:19:18;4.75;;;1.60;;
53718;SDS011;39616;48.872;9.390;2024-03-02T10:21:49;4.60;;;1.40;;
53718;SDS011;39616;48.872;9.390;2024-03-02T10:24:21;2.22;;;1.00;;
53718;SDS011;39616;48.872;9.390;2024-03-02T10:26:52;1.67;;;1.23;;
53718;SDS011;39616;48.872;9.390;2024-03-02T10:29:23;1.88;;;1.20;;
53718;SDS011;39616;48.872;9.390;2024-03-02T10:31:53;3.67;;;1.25;;
53718;SDS011;39616;48.872;9.390;2024-03-02T10:34:24;2.83;;;1.35;;
53718;SDS011;39616;48.872;9.390;2024-03-02T10:36:54;2.25;;;1.70;;
53718;SDS011;39616;48.872;9.390;2024-03-02T10:39:25;2.15;;;1.52;;
53718;SDS011;39616;48.872;9.390;2024-03-02T10:41:56;2.92;;;1.50;;
53718;SDS011;39616;48.872;9.390;2024-03-02T10:44:27;1.98;;;1.45;;
53718;SDS011;39616;48.872;9.390;2024-03-02T10:47:01;3.53;;;1.33;;
53718;SDS011;39616;48.872;9.390;2024-03-02T10:49:33;2.13;;;1.40;;
53718;SDS011;39616;48.872;9.390;2024-03-02T10:52:03;1.75;;;1.30;;
53718;SDS011;39616;48.872;9.390;2024-03-02T10:54:34;1.80;;;1.20;;
53718;SDS011;39616;48.872;9.390;2024-03-02T10:57:09;1.42;;;1.00;;
53718;SDS011;39616;48.872;9.390;2024-03-02T10:59:47;1.58;;;1.10;;
53718;SDS011;39616;48.872;9.390;2024-03-02T11:02:22;3.40;;;1.00;;
53718;SDS011;39616;48.872;9.390;2024-03-02T11:04:55;2.15;;;1.00;;
53718;SDS011;39616;48.872;9.390;2024-03-02T11:07:26;1.38;;;0.80;;
53718;SDS011;39616;48.872;9.390;2024-03-02T11:09:57;3.50;;;1.17;;
53718;SDS011;39616;48.872;9.390;2024-03-02T11:15:32;1.60;;;1.00;;
53718;SDS011;39616;48.872;9.390;2024-03-02T11:18:05;3.55;;;1.10;;
53718;SDS011;39616;48.872;9.390;2024-03-02T11:20:39;1.33;;;0.90;;
53718;SDS011;39616;48.872;9.390;2024-03-02T11:23:10;2.65;;;0.85;;
53718;SDS011;39616;48.872;9.390;2024-03-02T11:25:40;2.47;;;0.93;;
53718;SDS011;39616;48.872;9.390;2024-03-02T11:28:11;0.90;;;0.80;;
53718;SDS011;39616;48.872;9.390;2024-03-02T11:33:12;0.85;;;0.70;;
53718;SDS011;39616;48.872;9.390;2024-03-02T11:35:42;0.75;;;0.60;;
53718;SDS011;39616;48.872;9.390;2024-03-02T11:38:17;3.10;;;0.95;;
53718;SDS011;39616;48.872;9.390;2024-03-02T11:40:49;1.05;;;0.88;;
53718;SDS011;39616;48.872;9.390;2024-03-02T11:43:19;0.82;;;0.80;;
53718;SDS011;39616;48.872;9.390;2024-03-02T11:45:56;0.88;;;0.75;;
53718;SDS011;39616;48.872;9.390;2024-03-02T11:48:28;0.70;;;0.70;;
53718;SDS011;39616;48.872;9.390;2024-03-02T11:50:59;2.35;;;0.88;;
53718;SDS011;39616;48.872;9.390;2024-03-02T11:53:30;0.50;;;0.50;;
53718;SDS011;39616;48.872;9.390;2024-03-02T11:56:02;0.68;;;0.60;;
53718;SDS011;39616;48.872;9.390;2024-03-02T11:58:33;0.70;;;0.60;;
53718;SDS011;39616;48.872;9.390;2024-03-02T12:01:06;0.70;;;0.70;;
53718;SDS011;39616;48.872;9.390;2024-03-02T12:03:36;0.80;;;0.65;;
53718;SDS011;39616;48.872;9.390;2024-03-02T12:06:07;0.70;;;0.68;;
53718;SDS011;39616;48.872;9.390;2024-03-02T12:08:38;0.60;;;0.60;;
53718;SDS011;39616;48.872;9.390;2024-03-02T12:11:08;1.98;;;0.70;;
53718;SDS011;39616;48.872;9.390;2024-03-02T12:13:51;1.43;;;0.87;;
53718;SDS011;39616;48.872;9.390;2024-03-02T12:16:24;1.35;;;0.70;;
53718;SDS011;39616;48.872;9.390;2024-03-02T12:18:55;0.75;;;0.60;;
53718;SDS011;39616;48.872;9.390;2024-03-02T12:21:25;0.57;;;0.57;;
53718;SDS011;39616;48.872;9.390;2024-03-02T12:23:56;1.63;;;0.47;;
53718;SDS011;39616;48.872;9.390;2024-03-02T12:26:26;0.60;;;0.60;;
53718;SDS011;39616;48.872;9.390;2024-03-02T12:28:57;1.65;;;0.90;;
53718;SDS011;39616;48.872;9.390;2024-03-02T12:31:28;0.90;;;0.60;;
53718;SDS011;39616;48.872;9.390;2024-03-02T12:33:58;0.73;;;0.70;;
53718;SDS011;39616;48.872;9.390;2024-03-02T12:36:29;0.70;;;0.68;;
53718;SDS011;39616;48.872;9.390;2024-03-02T12:38:59;0.77;;;0.60;;
53718;SDS011;39616;48.872;9.390;2024-03-02T12:41:29;0.98;;;0.68;;
53718;SDS011;39616;48.872;9.390;2024-03-02T12:44:00;0.80;;;0.80;;
53718;SDS011;39616;48.872;9.390;2024-03-02T12:46:30;0.70;;;0.60;;
53718;SDS011;39616;48.872;9.390;2024-03-02T12:49:07;0.70;;;0.60;;
53718;SDS011;39616;48.872;9.390;2024-03-02T12:51:39;0.70;;;0.70;;
53718;SDS011;39616;48.872;9.390;2024-03-02T12:54:11;0.88;;;0.60;;
53718;SDS011;39616;48.872;9.390;2024-03-02T12:56:41;1.10;;;0.77;;
53718;SDS011;39616;48.872;9.390;2024-03-02T12:59:18;0.73;;;0.63;;
53718;SDS011;39616;48.872;9.390;2024-03-02T13:01:51;0.75;;;0.60;;
53718;SDS011;39616;48.872;9.390;2024-03-02T13:04:23;1.17;;;0.60;;
53718;SDS011;39616;48.872;9.390;2024-03-02T13:06:55;1.20;;;0.50;;
53718;SDS011;39616;48.872;9.390;2024-03-02T13:09:29;0.80;;;0.70;;
53718;SDS011;39616;48.872;9.390;2024-03-02T13:12:00;1.40;;;0.52;;
53718;SDS011;39616;48.872;9.390;2024-03-02T13:14:33;0.50;;;0.50;;
53718;SDS011;39616;48.872;9.390;2024-03-02T13:17:05;0.73;;;0.47;;
53718;SDS011;39616;48.872;9.390;2024-03-02T13:19:37;0.50;;;0.50;;
53718;SDS011;39616;48.872;9.390;2024-03-02T13:22:08;1.30;;;0.50;;
53718;SDS011;39616;48.872;9.390;2024-03-02T13:24:38;0.50;;;0.50;;
53718;SDS011;39616;48.872;9.390;2024-03-02T13:27:08;0.45;;;0.45;;
53718;SDS011;39616;48.872;9.390;2024-03-02T13:29:38;1.13;;;0.40;;
53718;SDS011;39616;48.872;9.390;2024-03-02T13:32:09;2.05;;;0.77;;
53718;SDS011;39616;48.872;9.390;2024-03-02T13:34:39;0.40;;;0.38;;
53718;SDS011;39616;48.872;9.390;2024-03-02T13:37:10;0.65;;;0.40;;
53718;SDS011;39616;48.872;9.390;2024-03-02T13:39:40;0.93;;;0.40;;
53718;SDS011;39616;48.872;9.390;2024-03-02T13:42:12;0.20;;;0.20;;
53718;SDS011;39616;48.872;9.390;2024-03-02T13:44:45;0.30;;;0.30;;
53718;SDS011;39616;48.872;9.390;2024-03-02T13:47:17;0.30;;;0.30;;
53718;SDS011;39616;48.872;9.390;2024-03-02T13:49:47;0.20;;;0.20;;
53718;SDS011;39616;48.872;9.390;2024-03-02T13:52:18;0.15;;;0.15;;
53718;SDS011;39616;48.872;9.390;2024-03-02T13:54:50;0.73;;;0.32;;
53718;SDS011;39616;48.872;9.390;2024-03-02T13:57:22;0.40;;;0.40;;
53718;SDS011;39616;48.872;9.390;2024-03-02T13:59:52;1.38;;;0.32;;
53718;SDS011;39616;48.872;9.390;2024-03-02T14:02:23;0.65;;;0.30;;
53718;SDS011;39616;48.872;9.390;2024-03-02T14:04:53;0.30;;;0.30;;
53718;SDS011;39616;48.872;9.390;2024-03-02T14:07:23;0.40;;;0.40;;
53718;SDS011;39616;48.872;9.390;2024-03-02T14:09:54;0.30;;;0.28;;
53718;SDS011;39616;48.872;9.390;2024-03-02T14:12:24;0.35;;;0.35;;
53718;SDS011;39616;48.872;9.390;2024-03-02T14:14:54;0.40;;;0.40;;
53718;SDS011;39616;48.872;9.390;2024-03-02T14:17:28;1.67;;;0.30;;
53718;SDS011;39616;48.872;9.390;2024-03-02T14:19:59;1.73;;;0.30;;
53718;SDS011;39616;48.872;9.390;2024-03-02T14:22:29;0.77;;;0.40;;
53718;SDS011;39616;48.872;9.390;2024-03-02T14:24:59;0.40;;;0.40;;
53718;SDS011;39616;48.872;9.390;2024-03-02T14:27:29;2.05;;;0.40;;
53718;SDS011;39616;48.872;9.390;2024-03-02T14:30:02;0.40;;;0.32;;
53718;SDS011;39616;48.872;9.390;2024-03-02T14:32:33;0.43;;;0.30;;
53718;SDS011;39616;48.872;9.390;2024-03-02T14:35:03;0.70;;;0.40;;
53718;SDS011;39616;48.872;9.390;2024-03-02T14:37:34;0.63;;;0.40;;
53718;SDS011;39616;48.872;9.390;2024-03-02T14:40:04;0.50;;;0.40;;
53718;SDS011;39616;48.872;9.390;2024-03-02T14:42:36;0.73;;;0.40;;
53718;SDS011;39616;48.872;9.390;2024-03-02T14:45:06;0.65;;;0.40;;
53718;SDS011;39616;48.872;9.390;2024-03-02T14:47:37;0.95;;;0.30;;
53718;SDS011;39616;48.872;9.390;2024-03-02T14:50:07;0.82;;;0.55;;
53718;SDS011;39616;48.872;9.390;2024-03-02T14:52:39;2.15;;;0.55;;
53718;SDS011;39616;48.872;9.390;2024-03-02T14:55:10;1.35;;;0.40;;
53718;SDS011;39616;48.872;9.390;2024-03-02T14:57:40;0.57;;;0.52;;
53718;SDS011;39616;48.872;9.390;2024-03-02T15:00:11;3.78;;;0.60;;
53718;SDS011;39616;48.872;9.390;2024-03-02T15:02:41;0.45;;;0.45;;
53718;SDS011;39616;48.872;9.390;2024-03-02T15:05:12;0.70;;;0.57;;
53718;SDS011;39616;48.872;9.390;2024-03-02T15:07:42;0.65;;;0.52;;